sensor_id;sensor_type;location;lat;lon;timestamp;temperature;humidity
25440;DHT22;13365;52.208;5.488;2022-10-31T00:01:40;18.20;92.10
25440;DHT22;13365;52.208;5.488;2022-10-31T00:04:06;18.20;92.00
25440;DHT22;13365;52.208;5.488;2022-10-31T00:06:32;18.20;92.00
25440;DHT22;13365;52.208;5.488;2022-10-31T00:08:59;18.20;92.00
25440;DHT22;13365;52.208;5.488;2022-10-31T00:11:25;18.20;92.50
25440;DHT22;13365;52.208;5.488;2022-10-31T00:13:51;18.30;92.10
25440;DHT22;13365;52.208;5.488;2022-10-31T00:16:22;18.30;92.10
25440;DHT22;13365;52.208;5.488;2022-10-31T00:18:52;18.30;92.40
25440;DHT22;13365;52.208;5.488;2022-10-31T00:21:18;18.30;92.40
25440;DHT22;13365;52.208;5.488;2022-10-31T00:23:44;18.30;92.40
25440;DHT22;13365;52.208;5.488;2022-10-31T00:26:10;18.20;92.30
25440;DHT22;13365;52.208;5.488;2022-10-31T00:28:35;18.30;92.20
25440;DHT22;13365;52.208;5.488;2022-10-31T00:31:03;18.30;92.20
25440;DHT22;13365;52.208;5.488;2022-10-31T00:33:29;18.40;92.30
25440;DHT22;13365;52.208;5.488;2022-10-31T00:35:55;18.40;92.20
25440;DHT22;13365;52.208;5.488;2022-10-31T00:38:21;18.30;92.20
25440;DHT22;13365;52.208;5.488;2022-10-31T00:40:47;18.40;92.20
25440;DHT22;13365;52.208;5.488;2022-10-31T00:43:12;18.40;92.20
25440;DHT22;13365;52.208;5.488;2022-10-31T00:45:38;18.40;92.10
25440;DHT22;13365;52.208;5.488;2022-10-31T00:48:03;18.40;92.10
25440;DHT22;13365;52.208;5.488;2022-10-31T00:50:30;18.40;91.80
25440;DHT22;13365;52.208;5.488;2022-10-31T00:52:55;18.40;91.80
25440;DHT22;13365;52.208;5.488;2022-10-31T00:55:22;18.30;91.80
25440;DHT22;13365;52.208;5.488;2022-10-31T00:57:47;18.30;91.90
25440;DHT22;13365;52.208;5.488;2022-10-31T01:00:13;18.30;91.90
25440;DHT22;13365;52.208;5.488;2022-10-31T01:02:39;18.40;92.00
25440;DHT22;13365;52.208;5.488;2022-10-31T01:05:05;18.40;92.10
25440;DHT22;13365;52.208;5.488;2022-10-31T01:07:30;18.30;92.10
25440;DHT22;13365;52.208;5.488;2022-10-31T01:09:56;18.30;92.00
25440;DHT22;13365;52.208;5.488;2022-10-31T01:12:21;18.40;91.90
25440;DHT22;13365;52.208;5.488;2022-10-31T01:14:47;18.20;91.80
25440;DHT22;13365;52.208;5.488;2022-10-31T01:17:13;18.20;91.80
25440;DHT22;13365;52.208;5.488;2022-10-31T01:19:39;18.20;91.70
25440;DHT22;13365;52.208;5.488;2022-10-31T01:22:05;18.20;91.60
25440;DHT22;13365;52.208;5.488;2022-10-31T01:24:31;18.10;91.40
25440;DHT22;13365;52.208;5.488;2022-10-31T01:26:57;18.10;91.40
25440;DHT22;13365;52.208;5.488;2022-10-31T01:29:22;18.10;91.40
25440;DHT22;13365;52.208;5.488;2022-10-31T01:31:48;18.00;91.30
25440;DHT22;13365;52.208;5.488;2022-10-31T01:34:15;18.00;91.30
25440;DHT22;13365;52.208;5.488;2022-10-31T01:36:42;17.90;91.20
25440;DHT22;13365;52.208;5.488;2022-10-31T01:39:13;17.90;91.20
25440;DHT22;13365;52.208;5.488;2022-10-31T01:41:43;17.80;91.30
25440;DHT22;13365;52.208;5.488;2022-10-31T01:49:17;17.80;91.40
25440;DHT22;13365;52.208;5.488;2022-10-31T01:51:55;17.80;91.30
25440;DHT22;13365;52.208;5.488;2022-10-31T01:54:25;17.80;91.30
25440;DHT22;13365;52.208;5.488;2022-10-31T01:56:53;17.70;91.30
25440;DHT22;13365;52.208;5.488;2022-10-31T01:59:21;17.70;91.40
25440;DHT22;13365;52.208;5.488;2022-10-31T02:01:48;17.70;91.30
25440;DHT22;13365;52.208;5.488;2022-10-31T02:04:15;17.70;91.20
25440;DHT22;13365;52.208;5.488;2022-10-31T02:06:51;17.60;91.20
25440;DHT22;13365;52.208;5.488;2022-10-31T02:09:19;17.60;91.20
25440;DHT22;13365;52.208;5.488;2022-10-31T02:11:51;17.60;91.10
25440;DHT22;13365;52.208;5.488;2022-10-31T02:14:17;17.50;91.00
25440;DHT22;13365;52.208;5.488;2022-10-31T02:16:43;17.30;91.10
25440;DHT22;13365;52.208;5.488;2022-10-31T02:19:12;17.30;91.00
25440;DHT22;13365;52.208;5.488;2022-10-31T02:22:06;17.30;91.00
25440;DHT22;13365;52.208;5.488;2022-10-31T02:30:21;16.90;91.00
25440;DHT22;13365;52.208;5.488;2022-10-31T02:33:17;16.80;91.10
25440;DHT22;13365;52.208;5.488;2022-10-31T02:35:55;16.70;91.20
25440;DHT22;13365;52.208;5.488;2022-10-31T02:44:35;16.80;91.20
25440;DHT22;13365;52.208;5.488;2022-10-31T02:49:43;16.60;91.30
25440;DHT22;13365;52.208;5.488;2022-10-31T02:52:30;16.50;91.30
25440;DHT22;13365;52.208;5.488;2022-10-31T02:54:56;16.30;91.10
25440;DHT22;13365;52.208;5.488;2022-10-31T02:57:31;16.30;91.00
25440;DHT22;13365;52.208;5.488;2022-10-31T03:00:06;16.20;90.90
25440;DHT22;13365;52.208;5.488;2022-10-31T03:05:37;16.00;91.30
25440;DHT22;13365;52.208;5.488;2022-10-31T03:08:23;15.90;91.30
25440;DHT22;13365;52.208;5.488;2022-10-31T03:11:01;16.00;91.40
25440;DHT22;13365;52.208;5.488;2022-10-31T03:16:16;16.00;91.20
25440;DHT22;13365;52.208;5.488;2022-10-31T03:19:05;16.10;91.20
25440;DHT22;13365;52.208;5.488;2022-10-31T03:24:10;16.10;91.30
25440;DHT22;13365;52.208;5.488;2022-10-31T03:26:40;16.10;91.40
25440;DHT22;13365;52.208;5.488;2022-10-31T03:29:08;16.00;91.50
25440;DHT22;13365;52.208;5.488;2022-10-31T03:31:38;16.10;91.70
25440;DHT22;13365;52.208;5.488;2022-10-31T03:34:07;16.10;91.60
25440;DHT22;13365;52.208;5.488;2022-10-31T03:36:35;16.20;91.50
25440;DHT22;13365;52.208;5.488;2022-10-31T03:39:04;16.30;91.30
25440;DHT22;13365;52.208;5.488;2022-10-31T03:41:35;16.20;91.10
25440;DHT22;13365;52.208;5.488;2022-10-31T03:44:07;16.10;91.30
25440;DHT22;13365;52.208;5.488;2022-10-31T03:46:34;16.10;91.30
25440;DHT22;13365;52.208;5.488;2022-10-31T03:49:00;16.10;91.40
25440;DHT22;13365;52.208;5.488;2022-10-31T03:51:39;16.10;91.40
25440;DHT22;13365;52.208;5.488;2022-10-31T03:57:00;16.10;91.60
25440;DHT22;13365;52.208;5.488;2022-10-31T03:59:34;16.20;91.60
25440;DHT22;13365;52.208;5.488;2022-10-31T04:02:07;16.20;91.80
25440;DHT22;13365;52.208;5.488;2022-10-31T04:04:37;16.10;91.30
25440;DHT22;13365;52.208;5.488;2022-10-31T04:07:03;16.20;91.30
25440;DHT22;13365;52.208;5.488;2022-10-31T04:09:33;16.20;91.50
25440;DHT22;13365;52.208;5.488;2022-10-31T04:12:01;16.00;91.40
25440;DHT22;13365;52.208;5.488;2022-10-31T04:14:32;16.00;91.40
25440;DHT22;13365;52.208;5.488;2022-10-31T04:16:59;16.10;91.40
25440;DHT22;13365;52.208;5.488;2022-10-31T04:19:25;16.10;91.40
25440;DHT22;13365;52.208;5.488;2022-10-31T04:21:50;16.00;91.40
25440;DHT22;13365;52.208;5.488;2022-10-31T04:24:16;15.90;91.40
25440;DHT22;13365;52.208;5.488;2022-10-31T04:26:41;16.00;91.50
25440;DHT22;13365;52.208;5.488;2022-10-31T04:29:07;16.00;91.50
25440;DHT22;13365;52.208;5.488;2022-10-31T04:31:32;16.10;91.60
25440;DHT22;13365;52.208;5.488;2022-10-31T04:33:58;16.20;91.60
25440;DHT22;13365;52.208;5.488;2022-10-31T04:36:23;16.10;91.30
25440;DHT22;13365;52.208;5.488;2022-10-31T04:38:49;15.90;91.10
25440;DHT22;13365;52.208;5.488;2022-10-31T04:41:14;15.90;91.10
25440;DHT22;13365;52.208;5.488;2022-10-31T04:43:40;15.90;91.40
25440;DHT22;13365;52.208;5.488;2022-10-31T04:46:05;15.80;90.80
25440;DHT22;13365;52.208;5.488;2022-10-31T04:48:31;15.80;90.80
25440;DHT22;13365;52.208;5.488;2022-10-31T04:51:00;15.70;90.80
25440;DHT22;13365;52.208;5.488;2022-10-31T04:53:26;15.60;90.80
25440;DHT22;13365;52.208;5.488;2022-10-31T04:55:52;15.60;91.00
25440;DHT22;13365;52.208;5.488;2022-10-31T04:58:18;15.70;91.50
25440;DHT22;13365;52.208;5.488;2022-10-31T05:00:43;15.80;91.90
25440;DHT22;13365;52.208;5.488;2022-10-31T05:03:09;15.80;92.10
25440;DHT22;13365;52.208;5.488;2022-10-31T05:05:34;15.80;92.10
25440;DHT22;13365;52.208;5.488;2022-10-31T05:08:00;15.70;91.80
25440;DHT22;13365;52.208;5.488;2022-10-31T05:10:27;15.70;91.70
25440;DHT22;13365;52.208;5.488;2022-10-31T05:12:55;15.70;91.60
25440;DHT22;13365;52.208;5.488;2022-10-31T05:15:22;15.70;91.60
25440;DHT22;13365;52.208;5.488;2022-10-31T05:17:48;15.80;91.50
25440;DHT22;13365;52.208;5.488;2022-10-31T05:20:15;15.80;91.40
25440;DHT22;13365;52.208;5.488;2022-10-31T05:22:46;15.70;91.40
25440;DHT22;13365;52.208;5.488;2022-10-31T05:25:12;15.70;91.60
25440;DHT22;13365;52.208;5.488;2022-10-31T05:27:42;15.70;91.60
25440;DHT22;13365;52.208;5.488;2022-10-31T05:30:09;15.80;91.50
25440;DHT22;13365;52.208;5.488;2022-10-31T05:32:46;15.70;91.60
25440;DHT22;13365;52.208;5.488;2022-10-31T05:35:18;15.70;91.70
25440;DHT22;13365;52.208;5.488;2022-10-31T05:37:44;15.80;91.80
25440;DHT22;13365;52.208;5.488;2022-10-31T05:40:12;15.80;91.70
25440;DHT22;13365;52.208;5.488;2022-10-31T05:42:39;15.80;91.70
25440;DHT22;13365;52.208;5.488;2022-10-31T05:45:07;15.80;91.80
25440;DHT22;13365;52.208;5.488;2022-10-31T05:47:32;15.80;91.80
25440;DHT22;13365;52.208;5.488;2022-10-31T05:49:58;15.80;91.90
25440;DHT22;13365;52.208;5.488;2022-10-31T05:52:23;15.90;91.80
25440;DHT22;13365;52.208;5.488;2022-10-31T05:54:49;15.90;91.60
25440;DHT22;13365;52.208;5.488;2022-10-31T05:57:14;15.80;91.60
25440;DHT22;13365;52.208;5.488;2022-10-31T05:59:40;15.70;91.60
25440;DHT22;13365;52.208;5.488;2022-10-31T06:02:05;15.70;91.50
25440;DHT22;13365;52.208;5.488;2022-10-31T06:04:31;15.80;91.50
25440;DHT22;13365;52.208;5.488;2022-10-31T06:06:57;15.80;91.50
25440;DHT22;13365;52.208;5.488;2022-10-31T06:09:22;15.90;91.40
25440;DHT22;13365;52.208;5.488;2022-10-31T06:11:48;15.80;91.30
25440;DHT22;13365;52.208;5.488;2022-10-31T06:14:13;15.70;91.40
25440;DHT22;13365;52.208;5.488;2022-10-31T06:16:39;15.60;91.50
25440;DHT22;13365;52.208;5.488;2022-10-31T06:19:05;15.60;91.70
25440;DHT22;13365;52.208;5.488;2022-10-31T06:21:30;15.60;91.70
25440;DHT22;13365;52.208;5.488;2022-10-31T06:23:56;15.60;91.70
25440;DHT22;13365;52.208;5.488;2022-10-31T06:26:21;15.60;91.70
25440;DHT22;13365;52.208;5.488;2022-10-31T06:28:47;15.60;91.80
25440;DHT22;13365;52.208;5.488;2022-10-31T06:31:12;15.60;92.00
25440;DHT22;13365;52.208;5.488;2022-10-31T06:33:40;15.70;92.00
25440;DHT22;13365;52.208;5.488;2022-10-31T06:36:05;15.70;92.20
25440;DHT22;13365;52.208;5.488;2022-10-31T06:38:31;15.70;92.30
25440;DHT22;13365;52.208;5.488;2022-10-31T06:40:57;15.80;92.40
25440;DHT22;13365;52.208;5.488;2022-10-31T06:43:22;15.70;92.30
25440;DHT22;13365;52.208;5.488;2022-10-31T06:45:48;15.80;92.40
25440;DHT22;13365;52.208;5.488;2022-10-31T06:48:13;15.90;92.40
25440;DHT22;13365;52.208;5.488;2022-10-31T06:50:39;15.90;92.40
25440;DHT22;13365;52.208;5.488;2022-10-31T06:53:05;15.80;92.30
25440;DHT22;13365;52.208;5.488;2022-10-31T06:55:30;15.90;92.50
25440;DHT22;13365;52.208;5.488;2022-10-31T06:57:58;16.00;92.60
25440;DHT22;13365;52.208;5.488;2022-10-31T07:00:26;16.10;92.60
25440;DHT22;13365;52.208;5.488;2022-10-31T07:02:59;16.20;92.90
25440;DHT22;13365;52.208;5.488;2022-10-31T07:05:26;16.20;93.00
25440;DHT22;13365;52.208;5.488;2022-10-31T07:07:53;16.20;93.10
25440;DHT22;13365;52.208;5.488;2022-10-31T07:10:19;16.20;93.10
25440;DHT22;13365;52.208;5.488;2022-10-31T07:12:44;16.20;93.30
25440;DHT22;13365;52.208;5.488;2022-10-31T07:15:11;16.20;93.20
25440;DHT22;13365;52.208;5.488;2022-10-31T07:17:37;16.30;93.20
25440;DHT22;13365;52.208;5.488;2022-10-31T07:20:02;16.40;93.20
25440;DHT22;13365;52.208;5.488;2022-10-31T07:22:35;16.40;93.10
25440;DHT22;13365;52.208;5.488;2022-10-31T07:25:01;16.40;93.00
25440;DHT22;13365;52.208;5.488;2022-10-31T07:27:27;16.50;93.00
25440;DHT22;13365;52.208;5.488;2022-10-31T07:29:52;16.50;93.00
25440;DHT22;13365;52.208;5.488;2022-10-31T07:32:18;16.70;92.80
25440;DHT22;13365;52.208;5.488;2022-10-31T07:34:43;16.70;92.70
25440;DHT22;13365;52.208;5.488;2022-10-31T07:37:09;16.60;92.60
25440;DHT22;13365;52.208;5.488;2022-10-31T07:39:34;16.80;93.00
25440;DHT22;13365;52.208;5.488;2022-10-31T07:42:00;16.80;92.70
25440;DHT22;13365;52.208;5.488;2022-10-31T07:44:25;16.90;92.60
25440;DHT22;13365;52.208;5.488;2022-10-31T07:46:51;16.90;92.70
25440;DHT22;13365;52.208;5.488;2022-10-31T07:49:16;16.90;92.70
25440;DHT22;13365;52.208;5.488;2022-10-31T07:51:42;17.00;92.80
25440;DHT22;13365;52.208;5.488;2022-10-31T07:54:07;17.00;93.00
25440;DHT22;13365;52.208;5.488;2022-10-31T07:56:33;17.10;93.10
25440;DHT22;13365;52.208;5.488;2022-10-31T07:58:58;17.20;93.20
25440;DHT22;13365;52.208;5.488;2022-10-31T08:01:24;17.30;93.10
25440;DHT22;13365;52.208;5.488;2022-10-31T08:03:49;17.30;93.10
25440;DHT22;13365;52.208;5.488;2022-10-31T08:06:15;17.40;93.20
25440;DHT22;13365;52.208;5.488;2022-10-31T08:08:40;17.40;93.20
25440;DHT22;13365;52.208;5.488;2022-10-31T08:11:06;17.50;93.30
25440;DHT22;13365;52.208;5.488;2022-10-31T08:13:31;17.50;93.40
25440;DHT22;13365;52.208;5.488;2022-10-31T08:15:57;17.50;93.50
25440;DHT22;13365;52.208;5.488;2022-10-31T08:18:28;17.50;93.90
25440;DHT22;13365;52.208;5.488;2022-10-31T08:20:54;17.60;94.10
25440;DHT22;13365;52.208;5.488;2022-10-31T08:23:20;17.70;94.50
25440;DHT22;13365;52.208;5.488;2022-10-31T08:25:45;17.90;94.10
25440;DHT22;13365;52.208;5.488;2022-10-31T08:28:13;18.10;94.00
25440;DHT22;13365;52.208;5.488;2022-10-31T08:30:40;18.10;94.70
25440;DHT22;13365;52.208;5.488;2022-10-31T08:35:36;18.30;94.60
25440;DHT22;13365;52.208;5.488;2022-10-31T08:38:02;18.40;94.70
25440;DHT22;13365;52.208;5.488;2022-10-31T08:40:29;18.50;94.70
25440;DHT22;13365;52.208;5.488;2022-10-31T08:43:00;18.70;94.70
25440;DHT22;13365;52.208;5.488;2022-10-31T08:45:26;18.90;94.70
25440;DHT22;13365;52.208;5.488;2022-10-31T08:47:55;19.10;94.40
25440;DHT22;13365;52.208;5.488;2022-10-31T08:50:21;19.20;93.90
25440;DHT22;13365;52.208;5.488;2022-10-31T08:52:47;19.20;93.90
25440;DHT22;13365;52.208;5.488;2022-10-31T08:55:12;19.30;93.70
25440;DHT22;13365;52.208;5.488;2022-10-31T08:57:38;19.20;93.50
25440;DHT22;13365;52.208;5.488;2022-10-31T09:00:04;19.20;93.70
25440;DHT22;13365;52.208;5.488;2022-10-31T09:02:30;19.20;93.70
25440;DHT22;13365;52.208;5.488;2022-10-31T09:04:56;19.30;93.70
25440;DHT22;13365;52.208;5.488;2022-10-31T09:07:21;19.30;93.60
25440;DHT22;13365;52.208;5.488;2022-10-31T09:09:47;19.50;93.60
25440;DHT22;13365;52.208;5.488;2022-10-31T09:12:12;19.50;93.50
25440;DHT22;13365;52.208;5.488;2022-10-31T09:14:38;19.60;93.70
25440;DHT22;13365;52.208;5.488;2022-10-31T09:17:03;19.80;93.80
25440;DHT22;13365;52.208;5.488;2022-10-31T09:19:29;19.90;94.40
25440;DHT22;13365;52.208;5.488;2022-10-31T09:21:54;20.00;93.60
25440;DHT22;13365;52.208;5.488;2022-10-31T09:24:20;20.10;93.60
25440;DHT22;13365;52.208;5.488;2022-10-31T09:26:46;20.20;93.60
25440;DHT22;13365;52.208;5.488;2022-10-31T09:29:11;20.30;93.60
25440;DHT22;13365;52.208;5.488;2022-10-31T09:31:37;20.60;93.60
25440;DHT22;13365;52.208;5.488;2022-10-31T09:34:05;20.70;93.10
25440;DHT22;13365;52.208;5.488;2022-10-31T09:36:30;20.70;92.90
25440;DHT22;13365;52.208;5.488;2022-10-31T09:38:56;20.80;92.90
25440;DHT22;13365;52.208;5.488;2022-10-31T09:41:29;20.90;92.90
25440;DHT22;13365;52.208;5.488;2022-10-31T09:46:56;21.10;92.80
25440;DHT22;13365;52.208;5.488;2022-10-31T09:52:24;21.50;92.60
25440;DHT22;13365;52.208;5.488;2022-10-31T09:54:58;21.60;92.30
25440;DHT22;13365;52.208;5.488;2022-10-31T09:57:28;21.70;92.20
25440;DHT22;13365;52.208;5.488;2022-10-31T09:59:55;21.70;91.80
25440;DHT22;13365;52.208;5.488;2022-10-31T10:02:37;21.80;91.40
25440;DHT22;13365;52.208;5.488;2022-10-31T10:05:10;21.80;91.40
25440;DHT22;13365;52.208;5.488;2022-10-31T10:10:30;21.80;90.90
25440;DHT22;13365;52.208;5.488;2022-10-31T10:30:16;21.80;90.60
25440;DHT22;13365;52.208;5.488;2022-10-31T10:32:56;21.90;90.90
25440;DHT22;13365;52.208;5.488;2022-10-31T10:35:34;22.10;90.80
25440;DHT22;13365;52.208;5.488;2022-10-31T10:38:20;22.30;90.60
25440;DHT22;13365;52.208;5.488;2022-10-31T10:40:47;22.10;90.20
25440;DHT22;13365;52.208;5.488;2022-10-31T10:43:23;22.10;90.30
25440;DHT22;13365;52.208;5.488;2022-10-31T10:59:47;22.30;90.40
25440;DHT22;13365;52.208;5.488;2022-10-31T11:02:24;22.20;91.00
25440;DHT22;13365;52.208;5.488;2022-10-31T11:05:00;22.30;90.70
25440;DHT22;13365;52.208;5.488;2022-10-31T11:07:40;22.30;90.40
25440;DHT22;13365;52.208;5.488;2022-10-31T11:10:06;22.30;90.70
25440;DHT22;13365;52.208;5.488;2022-10-31T11:12:39;22.40;91.10
25440;DHT22;13365;52.208;5.488;2022-10-31T11:15:21;22.60;91.10
25440;DHT22;13365;52.208;5.488;2022-10-31T11:17:50;22.60;90.40
25440;DHT22;13365;52.208;5.488;2022-10-31T11:22:43;22.60;90.60
25440;DHT22;13365;52.208;5.488;2022-10-31T11:25:26;22.50;91.00
25440;DHT22;13365;52.208;5.488;2022-10-31T11:28:04;22.60;90.60
25440;DHT22;13365;52.208;5.488;2022-10-31T11:30:36;22.70;90.50
25440;DHT22;13365;52.208;5.488;2022-10-31T11:33:32;22.60;90.70
25440;DHT22;13365;52.208;5.488;2022-10-31T11:36:14;22.80;90.60
25440;DHT22;13365;52.208;5.488;2022-10-31T11:38:41;22.90;90.20
25440;DHT22;13365;52.208;5.488;2022-10-31T11:41:14;23.00;89.30
25440;DHT22;13365;52.208;5.488;2022-10-31T11:43:50;23.00;88.50
25440;DHT22;13365;52.208;5.488;2022-10-31T11:46:22;22.90;88.40
25440;DHT22;13365;52.208;5.488;2022-10-31T11:48:51;22.70;88.80
25440;DHT22;13365;52.208;5.488;2022-10-31T11:51:23;22.60;88.90
25440;DHT22;13365;52.208;5.488;2022-10-31T11:53:51;22.60;88.50
25440;DHT22;13365;52.208;5.488;2022-10-31T11:56:17;22.50;89.30
25440;DHT22;13365;52.208;5.488;2022-10-31T11:58:43;22.50;89.30
25440;DHT22;13365;52.208;5.488;2022-10-31T12:01:25;22.70;88.80
25440;DHT22;13365;52.208;5.488;2022-10-31T12:06:34;22.70;89.00
25440;DHT22;13365;52.208;5.488;2022-10-31T12:09:01;22.70;89.70
25440;DHT22;13365;52.208;5.488;2022-10-31T12:11:32;22.80;88.80
25440;DHT22;13365;52.208;5.488;2022-10-31T12:14:25;22.90;89.10
25440;DHT22;13365;52.208;5.488;2022-10-31T12:20:01;22.80;88.10
25440;DHT22;13365;52.208;5.488;2022-10-31T12:36:40;22.20;90.20
25440;DHT22;13365;52.208;5.488;2022-10-31T12:42:17;22.00;90.80
25440;DHT22;13365;52.208;5.488;2022-10-31T12:48:10;22.30;90.90
25440;DHT22;13365;52.208;5.488;2022-10-31T13:01:49;22.60;90.40
25440;DHT22;13365;52.208;5.488;2022-10-31T13:06:50;22.50;90.80
25440;DHT22;13365;52.208;5.488;2022-10-31T13:09:24;22.50;90.40
25440;DHT22;13365;52.208;5.488;2022-10-31T13:11:58;22.50;90.60
25440;DHT22;13365;52.208;5.488;2022-10-31T13:14:32;22.40;90.60
25440;DHT22;13365;52.208;5.488;2022-10-31T13:16:59;22.50;90.70
25440;DHT22;13365;52.208;5.488;2022-10-31T13:19:39;22.60;90.60
25440;DHT22;13365;52.208;5.488;2022-10-31T13:22:15;22.70;90.80
25440;DHT22;13365;52.208;5.488;2022-10-31T13:27:24;23.10;90.30
25440;DHT22;13365;52.208;5.488;2022-10-31T13:30:15;23.20;90.00
25440;DHT22;13365;52.208;5.488;2022-10-31T13:33:09;23.10;89.70
25440;DHT22;13365;52.208;5.488;2022-10-31T13:36:15;23.00;90.40
25440;DHT22;13365;52.208;5.488;2022-10-31T13:38:45;22.80;90.50
25440;DHT22;13365;52.208;5.488;2022-10-31T13:44:18;22.70;90.80
25440;DHT22;13365;52.208;5.488;2022-10-31T13:46:46;23.00;90.60
25440;DHT22;13365;52.208;5.488;2022-10-31T13:51:49;22.80;90.40
25440;DHT22;13365;52.208;5.488;2022-10-31T13:54:22;22.80;90.80
25440;DHT22;13365;52.208;5.488;2022-10-31T13:56:52;22.60;91.20
25440;DHT22;13365;52.208;5.488;2022-10-31T13:59:22;22.70;91.20
25440;DHT22;13365;52.208;5.488;2022-10-31T14:01:57;22.80;90.90
25440;DHT22;13365;52.208;5.488;2022-10-31T14:04:38;23.00;90.90
25440;DHT22;13365;52.208;5.488;2022-10-31T14:07:13;23.10;90.40
25440;DHT22;13365;52.208;5.488;2022-10-31T14:12:37;23.30;90.40
25440;DHT22;13365;52.208;5.488;2022-10-31T14:15:23;23.50;90.20
25440;DHT22;13365;52.208;5.488;2022-10-31T14:17:56;23.50;90.00
25440;DHT22;13365;52.208;5.488;2022-10-31T14:20:43;23.60;89.70
25440;DHT22;13365;52.208;5.488;2022-10-31T14:25:53;23.50;89.70
25440;DHT22;13365;52.208;5.488;2022-10-31T14:28:36;23.40;90.10
25440;DHT22;13365;52.208;5.488;2022-10-31T14:31:02;23.30;89.90
25440;DHT22;13365;52.208;5.488;2022-10-31T14:33:29;23.20;90.00
25440;DHT22;13365;52.208;5.488;2022-10-31T14:36:00;23.20;90.00
25440;DHT22;13365;52.208;5.488;2022-10-31T14:41:11;23.10;90.20
25440;DHT22;13365;52.208;5.488;2022-10-31T14:46:44;22.90;90.30
25440;DHT22;13365;52.208;5.488;2022-10-31T14:49:34;22.80;90.40
25440;DHT22;13365;52.208;5.488;2022-10-31T14:52:10;22.70;90.40
25440;DHT22;13365;52.208;5.488;2022-10-31T14:54:41;22.60;90.60
25440;DHT22;13365;52.208;5.488;2022-10-31T14:57:23;22.70;90.50
25440;DHT22;13365;52.208;5.488;2022-10-31T14:59:53;22.40;90.50
25440;DHT22;13365;52.208;5.488;2022-10-31T15:05:13;22.00;91.20
25440;DHT22;13365;52.208;5.488;2022-10-31T15:07:54;22.00;91.40
25440;DHT22;13365;52.208;5.488;2022-10-31T15:10:27;22.20;91.20
25440;DHT22;13365;52.208;5.488;2022-10-31T15:12:55;22.40;91.10
25440;DHT22;13365;52.208;5.488;2022-10-31T15:15:25;22.40;90.90
25440;DHT22;13365;52.208;5.488;2022-10-31T15:18:18;22.50;90.70
25440;DHT22;13365;52.208;5.488;2022-10-31T15:20:46;22.60;90.60
25440;DHT22;13365;52.208;5.488;2022-10-31T15:23:20;22.70;90.30
25440;DHT22;13365;52.208;5.488;2022-10-31T15:25:46;22.50;90.60
25440;DHT22;13365;52.208;5.488;2022-10-31T15:28:21;22.40;90.70
25440;DHT22;13365;52.208;5.488;2022-10-31T15:30:52;22.50;90.50
25440;DHT22;13365;52.208;5.488;2022-10-31T15:33:27;22.50;90.50
25440;DHT22;13365;52.208;5.488;2022-10-31T15:36:01;22.60;90.50
25440;DHT22;13365;52.208;5.488;2022-10-31T15:38:28;22.50;90.40
25440;DHT22;13365;52.208;5.488;2022-10-31T15:46:58;22.20;90.70
25440;DHT22;13365;52.208;5.488;2022-10-31T15:49:37;22.20;90.80
25440;DHT22;13365;52.208;5.488;2022-10-31T15:52:07;22.10;90.80
25440;DHT22;13365;52.208;5.488;2022-10-31T15:54:35;21.90;90.90
25440;DHT22;13365;52.208;5.488;2022-10-31T15:57:02;21.80;91.10
25440;DHT22;13365;52.208;5.488;2022-10-31T15:59:28;21.70;91.30
25440;DHT22;13365;52.208;5.488;2022-10-31T16:02:02;21.40;91.80
25440;DHT22;13365;52.208;5.488;2022-10-31T16:04:28;21.10;92.10
25440;DHT22;13365;52.208;5.488;2022-10-31T16:07:13;20.90;92.60
25440;DHT22;13365;52.208;5.488;2022-10-31T16:09:52;20.90;92.80
25440;DHT22;13365;52.208;5.488;2022-10-31T16:12:18;20.70;93.00
25440;DHT22;13365;52.208;5.488;2022-10-31T16:14:44;20.80;93.00
25440;DHT22;13365;52.208;5.488;2022-10-31T16:17:15;20.90;92.90
25440;DHT22;13365;52.208;5.488;2022-10-31T16:20:18;21.00;92.70
25440;DHT22;13365;52.208;5.488;2022-10-31T16:22:48;21.20;92.50
25440;DHT22;13365;52.208;5.488;2022-10-31T16:25:20;21.30;92.40
25440;DHT22;13365;52.208;5.488;2022-10-31T16:27:52;21.30;92.30
25440;DHT22;13365;52.208;5.488;2022-10-31T16:30:35;21.30;92.10
25440;DHT22;13365;52.208;5.488;2022-10-31T16:33:03;21.40;92.00
25440;DHT22;13365;52.208;5.488;2022-10-31T16:35:37;21.60;91.80
25440;DHT22;13365;52.208;5.488;2022-10-31T16:38:04;21.60;91.70
25440;DHT22;13365;52.208;5.488;2022-10-31T16:40:30;21.60;91.60
25440;DHT22;13365;52.208;5.488;2022-10-31T16:43:00;21.60;91.60
25440;DHT22;13365;52.208;5.488;2022-10-31T16:45:29;21.60;91.50
25440;DHT22;13365;52.208;5.488;2022-10-31T16:48:03;21.60;91.40
25440;DHT22;13365;52.208;5.488;2022-10-31T16:50:28;21.50;91.40
25440;DHT22;13365;52.208;5.488;2022-10-31T16:52:54;21.40;91.30
25440;DHT22;13365;52.208;5.488;2022-10-31T16:55:20;21.40;91.40
25440;DHT22;13365;52.208;5.488;2022-10-31T16:57:54;21.30;91.70
25440;DHT22;13365;52.208;5.488;2022-10-31T17:00:25;21.10;91.80
25440;DHT22;13365;52.208;5.488;2022-10-31T17:02:53;21.20;92.40
25440;DHT22;13365;52.208;5.488;2022-10-31T17:05:20;21.10;91.90
25440;DHT22;13365;52.208;5.488;2022-10-31T17:07:47;21.10;92.00
25440;DHT22;13365;52.208;5.488;2022-10-31T17:10:14;21.20;91.90
25440;DHT22;13365;52.208;5.488;2022-10-31T17:12:43;21.10;92.10
25440;DHT22;13365;52.208;5.488;2022-10-31T17:15:23;21.20;92.00
25440;DHT22;13365;52.208;5.488;2022-10-31T17:17:49;21.20;92.00
25440;DHT22;13365;52.208;5.488;2022-10-31T17:20:27;21.10;92.10
25440;DHT22;13365;52.208;5.488;2022-10-31T17:22:53;21.10;92.20
25440;DHT22;13365;52.208;5.488;2022-10-31T17:25:22;20.90;92.40
25440;DHT22;13365;52.208;5.488;2022-10-31T17:27:49;20.90;92.70
25440;DHT22;13365;52.208;5.488;2022-10-31T17:30:16;20.90;92.70
25440;DHT22;13365;52.208;5.488;2022-10-31T17:32:44;20.90;92.90
25440;DHT22;13365;52.208;5.488;2022-10-31T17:35:11;20.80;92.90
25440;DHT22;13365;52.208;5.488;2022-10-31T17:37:37;20.80;92.90
25440;DHT22;13365;52.208;5.488;2022-10-31T17:40:03;20.70;92.90
25440;DHT22;13365;52.208;5.488;2022-10-31T17:42:29;20.70;92.90
25440;DHT22;13365;52.208;5.488;2022-10-31T17:44:55;20.60;92.80
25440;DHT22;13365;52.208;5.488;2022-10-31T17:47:20;20.60;93.00
25440;DHT22;13365;52.208;5.488;2022-10-31T17:49:46;20.60;92.90
25440;DHT22;13365;52.208;5.488;2022-10-31T17:52:11;20.70;92.90
25440;DHT22;13365;52.208;5.488;2022-10-31T17:54:37;20.60;93.00
25440;DHT22;13365;52.208;5.488;2022-10-31T17:57:02;20.60;93.00
25440;DHT22;13365;52.208;5.488;2022-10-31T17:59:28;20.60;93.00
25440;DHT22;13365;52.208;5.488;2022-10-31T18:01:55;20.50;92.90
25440;DHT22;13365;52.208;5.488;2022-10-31T18:04:20;20.60;92.70
25440;DHT22;13365;52.208;5.488;2022-10-31T18:06:46;20.60;92.70
25440;DHT22;13365;52.208;5.488;2022-10-31T18:09:14;20.50;92.90